createdAt,value
2022-09-04T00:03:15.766Z,0.70
2022-09-04T00:07:33.894Z,0.90
2022-09-04T00:12:05.622Z,0.80
2022-09-04T00:16:22.202Z,1.08
2022-09-04T00:20:33.177Z,0.80
2022-09-04T00:24:42.966Z,0.90
2022-09-04T00:29:10.642Z,0.90
2022-09-04T00:33:24.267Z,0.80
2022-09-04T00:37:39.960Z,0.80
2022-09-04T00:42:08.642Z,1.05
2022-09-04T00:46:19.453Z,0.80
2022-09-04T00:50:55.233Z,0.70
2022-09-04T00:55:15.945Z,0.88
2022-09-04T00:59:56.378Z,0.85
2022-09-04T01:04:06.165Z,0.85
2022-09-04T01:08:31.186Z,0.95
2022-09-04T01:12:42.705Z,0.70
2022-09-04T01:17:09.498Z,0.85
2022-09-04T01:21:30.949Z,0.80
2022-09-04T01:26:00.981Z,0.77
2022-09-04T01:30:16.000Z,0.70
2022-09-04T01:34:47.759Z,0.85
2022-09-04T01:39:01.183Z,0.75
2022-09-04T01:43:09.468Z,0.90
2022-09-04T01:47:21.613Z,1.00
2022-09-04T01:51:44.829Z,0.80
2022-09-04T01:55:48.142Z,0.70
2022-09-04T02:00:10.635Z,0.98
2022-09-04T02:04:37.563Z,1.00
2022-09-04T02:08:56.746Z,0.80
2022-09-04T02:13:45.121Z,0.73
2022-09-04T02:18:13.040Z,0.80
2022-09-04T02:22:20.790Z,0.90
2022-09-04T02:26:58.269Z,0.82
2022-09-04T02:31:10.182Z,0.80
2022-09-04T02:35:41.821Z,0.70
2022-09-04T02:40:08.203Z,0.90
2022-09-04T02:44:20.385Z,0.82
2022-09-04T02:48:38.153Z,0.85
2022-09-04T02:52:43.137Z,0.70
2022-09-04T02:57:01.087Z,0.90
2022-09-04T03:01:12.767Z,0.75
2022-09-04T03:05:31.480Z,0.85
2022-09-04T03:09:43.821Z,0.90
2022-09-04T03:14:12.183Z,0.70
2022-09-04T03:18:16.951Z,1.00
2022-09-04T03:22:23.966Z,0.90
2022-09-04T03:26:36.363Z,0.80
2022-09-04T03:30:39.774Z,0.85
2022-09-04T03:34:56.958Z,0.93
2022-09-04T03:39:31.105Z,0.90
2022-09-04T03:43:54.709Z,1.05
2022-09-04T03:48:12.494Z,1.00
2022-09-04T03:52:35.086Z,0.85
2022-09-04T03:56:56.205Z,0.70
2022-09-04T04:01:24.166Z,0.80
2022-09-04T04:06:01.039Z,0.70
2022-09-04T04:10:19.772Z,0.80
2022-09-04T04:14:51.334Z,1.08
2022-09-04T04:19:26.289Z,0.80
2022-09-04T04:23:44.581Z,0.88
2022-09-04T04:28:20.282Z,0.90
2022-09-04T04:32:32.554Z,0.95
2022-09-04T04:36:45.499Z,0.65
2022-09-04T04:41:22.049Z,1.10
2022-09-04T04:45:45.470Z,0.73
2022-09-04T04:50:11.703Z,1.00
2022-09-04T04:54:29.931Z,0.70
2022-09-04T04:59:09.062Z,0.98
2022-09-04T05:03:37.518Z,1.00
2022-09-04T05:08:08.640Z,1.00
2022-09-04T05:12:52.111Z,0.90
2022-09-04T05:17:24.562Z,0.77
2022-09-04T05:21:39.623Z,0.75
2022-09-04T05:26:07.788Z,0.98
2022-09-04T05:30:32.972Z,1.10
2022-09-04T05:34:52.075Z,0.98
2022-09-04T05:39:09.538Z,0.75
2022-09-04T05:43:35.883Z,1.00
2022-09-04T05:47:40.339Z,0.80
2022-09-04T05:52:09.298Z,1.05
2022-09-04T05:56:20.555Z,0.95
2022-09-04T06:00:22.590Z,1.15
2022-09-04T06:04:36.297Z,1.13
2022-09-04T06:08:48.181Z,0.80
2022-09-04T06:13:01.811Z,1.10
2022-09-04T06:17:12.704Z,1.10
2022-09-04T06:21:49.714Z,0.90
2022-09-04T06:26:26.842Z,0.90
2022-09-04T06:30:44.042Z,0.90
2022-09-04T06:35:22.894Z,1.25
2022-09-04T06:39:52.603Z,1.10
2022-09-04T06:44:13.009Z,1.10
2022-09-04T06:48:28.576Z,1.00
2022-09-04T06:53:04.143Z,1.07
2022-09-04T06:57:21.418Z,1.33
2022-09-04T07:01:47.230Z,0.82
2022-09-04T07:06:18.362Z,1.53
2022-09-04T07:10:25.756Z,1.27
2022-09-04T07:15:12.348Z,1.35
2022-09-04T07:19:16.929Z,1.23
2022-09-04T07:23:34.456Z,1.10
2022-09-04T07:27:55.748Z,1.20
2022-09-04T07:32:18.694Z,1.33
2022-09-04T07:36:32.821Z,1.00
2022-09-04T07:40:40.027Z,1.50
2022-09-04T07:44:59.101Z,1.38
2022-09-04T07:49:24.094Z,1.38
2022-09-04T07:53:50.747Z,1.33
2022-09-04T08:02:36.688Z,1.55
2022-09-04T08:06:46.345Z,1.70
2022-09-04T08:11:18.317Z,1.17
2022-09-04T08:15:35.273Z,1.40
2022-09-04T08:20:09.473Z,1.60
2022-09-04T08:24:14.100Z,1.92
2022-09-04T08:29:00.145Z,1.77
2022-09-04T08:33:27.436Z,2.17
2022-09-04T08:37:37.812Z,1.73
2022-09-04T08:41:42.464Z,2.00
2022-09-04T08:46:16.655Z,1.70
2022-09-04T08:50:34.311Z,2.17
2022-09-04T08:54:58.953Z,1.95
2022-09-04T08:59:22.285Z,2.72
2022-09-04T09:04:00.950Z,2.22
2022-09-04T09:12:27.246Z,2.45
2022-09-04T09:17:12.407Z,2.30
2022-09-04T09:21:51.622Z,2.50
2022-09-04T09:26:23.541Z,2.42
2022-09-04T09:30:25.602Z,1.90
2022-09-04T09:35:12.511Z,2.42
2022-09-04T09:39:17.229Z,2.20
2022-09-04T09:43:42.077Z,2.53
2022-09-04T09:47:58.145Z,1.80
2022-09-04T09:52:35.986Z,2.33
2022-09-04T09:57:11.408Z,2.00
2022-09-04T10:01:45.034Z,2.60
2022-09-04T10:06:14.949Z,2.67
2022-09-04T10:10:28.522Z,2.10
2022-09-04T10:15:01.429Z,2.47
2022-09-04T10:19:46.407Z,2.40
2022-09-04T10:24:05.919Z,2.67
2022-09-04T10:28:40.729Z,2.80
2022-09-04T10:33:07.957Z,2.65
2022-09-04T10:37:34.641Z,2.58
2022-09-04T10:41:55.819Z,2.47
2022-09-04T10:46:00.559Z,2.33
2022-09-04T10:50:20.713Z,2.95
2022-09-04T10:54:44.810Z,2.95
2022-09-04T11:03:55.083Z,3.28
2022-09-04T11:08:09.250Z,3.03
2022-09-04T11:12:25.338Z,2.30
2022-09-04T11:16:50.624Z,2.60
2022-09-04T11:21:31.170Z,2.78
2022-09-04T11:25:52.119Z,2.97
2022-09-04T11:30:14.905Z,2.33
2022-09-04T11:34:49.401Z,2.60
2022-09-04T11:39:06.172Z,2.80
2022-09-04T11:43:36.791Z,2.50
2022-09-04T11:48:16.877Z,2.30
2022-09-04T11:52:41.579Z,2.50
2022-09-04T11:56:58.593Z,2.15
2022-09-04T12:01:21.414Z,2.78
2022-09-04T12:10:24.062Z,2.70
2022-09-04T12:14:54.789Z,2.50
2022-09-04T12:19:26.921Z,2.30
2022-09-04T12:24:04.244Z,2.70
2022-09-04T12:28:43.438Z,2.78
2022-09-04T12:33:10.187Z,2.25
2022-09-04T12:37:29.802Z,2.60
2022-09-04T12:42:04.835Z,3.10
2022-09-04T12:46:57.561Z,2.42
2022-09-04T12:51:14.996Z,2.50
2022-09-04T12:55:45.856Z,2.35
2022-09-04T14:08:31.099Z,2.50
2022-09-04T14:12:46.691Z,2.50
2022-09-04T14:16:56.288Z,2.10
2022-09-04T14:21:10.935Z,2.88
2022-09-04T14:25:35.617Z,2.30
2022-09-04T14:29:44.709Z,2.58
2022-09-04T14:34:21.368Z,2.53
2022-09-04T14:38:41.078Z,2.45
2022-09-04T14:43:12.322Z,2.38
2022-09-04T14:47:30.356Z,2.45
2022-09-04T14:51:43.566Z,2.75
2022-09-04T14:56:07.585Z,2.40
2022-09-04T15:00:20.716Z,2.55
2022-09-04T15:04:27.350Z,2.08
2022-09-04T15:08:40.535Z,2.30
2022-09-04T15:13:21.101Z,2.58
2022-09-04T15:17:28.165Z,2.45
2022-09-04T15:22:10.334Z,2.13
2022-09-04T15:26:25.898Z,2.13
2022-09-04T15:30:40.580Z,2.30
2022-09-04T15:34:44.284Z,2.08
2022-09-04T15:38:50.623Z,2.17
2022-09-04T15:43:11.598Z,2.35
2022-09-04T15:47:51.099Z,2.28
2022-09-04T15:52:24.259Z,2.25
2022-09-04T15:56:39.148Z,2.40
2022-09-04T16:01:06.027Z,2.53
2022-09-04T16:05:23.591Z,2.20
2022-09-04T16:09:40.239Z,2.13
2022-09-04T16:17:55.722Z,2.08
2022-09-04T16:22:03.878Z,2.40
2022-09-04T16:26:12.721Z,2.00
2022-09-04T16:30:41.392Z,2.20
2022-09-04T16:34:53.971Z,2.25
2022-09-04T16:39:14.383Z,2.50
2022-09-04T16:43:25.680Z,2.67
2022-09-04T16:47:44.960Z,2.83
2022-09-04T16:52:12.532Z,2.33
2022-09-04T16:56:26.243Z,2.22
2022-09-04T17:00:30.907Z,2.03
2022-09-04T17:04:44.208Z,2.13
2022-09-04T17:08:56.958Z,2.00
2022-09-04T17:13:27.814Z,2.22
2022-09-04T17:17:32.175Z,2.40
2022-09-04T17:28:57.729Z,2.28
2022-09-04T17:29:19.625Z,2.17
2022-09-04T17:31:26.415Z,2.33
2022-09-04T17:40:44.531Z,2.22
2022-09-04T17:40:53.466Z,2.33
2022-09-04T17:45:00.127Z,2.45
2022-09-04T17:49:34.535Z,2.38
2022-09-04T17:53:40.256Z,2.40
2022-09-04T17:57:49.267Z,2.00
2022-09-04T18:01:50.921Z,2.63
2022-09-04T18:06:19.230Z,2.80
2022-09-04T18:10:37.790Z,2.10
2022-09-04T18:14:39.494Z,2.15
2022-09-04T18:19:08.903Z,2.53
2022-09-04T18:23:35.486Z,2.42
2022-09-04T18:28:12.441Z,2.30
2022-09-04T18:37:23.606Z,2.08
2022-09-04T18:37:44.602Z,2.20
2022-09-04T18:50:20.206Z,2.40
2022-09-04T18:50:30.122Z,2.47
2022-09-04T18:51:19.419Z,2.00
2022-09-04T18:55:29.949Z,1.92
2022-09-04T18:59:37.552Z,2.05
2022-09-04T19:03:51.414Z,2.13
2022-09-04T19:07:54.730Z,1.73
2022-09-04T19:12:04.369Z,2.00
2022-09-04T19:16:28.807Z,1.90
2022-09-04T19:20:49.078Z,1.73
2022-09-04T19:25:13.747Z,1.90
2022-09-04T19:29:38.536Z,2.03
2022-09-04T19:33:48.107Z,2.28
2022-09-04T19:41:44.743Z,2.33
2022-09-04T19:46:19.485Z,1.73
2022-09-04T19:47:37.207Z,1.98
2022-09-04T19:53:35.739Z,1.95
2022-09-04T19:56:29.872Z,2.10
2022-09-04T20:00:43.535Z,1.73
2022-09-04T20:04:55.335Z,2.03
2022-09-04T20:08:59.838Z,1.75
2022-09-04T20:13:24.702Z,1.98
2022-09-04T20:17:33.463Z,2.47
2022-09-04T20:22:14.125Z,2.00
2022-09-04T20:26:24.369Z,1.80
2022-09-04T20:30:26.707Z,2.00
2022-09-04T20:34:31.500Z,1.90
2022-09-04T20:38:41.449Z,1.60
2022-09-04T20:43:03.327Z,2.20
2022-09-04T20:52:44.558Z,1.75
2022-09-04T20:53:06.020Z,2.27
2022-09-04T20:57:43.587Z,1.90
2022-09-04T21:03:07.337Z,2.22
2022-09-04T21:06:27.162Z,1.75
2022-09-04T21:10:41.528Z,1.83
2022-09-04T21:14:47.998Z,1.95
2022-09-04T21:19:28.545Z,1.67
2022-09-04T21:23:46.547Z,2.20
2022-09-04T21:28:03.125Z,2.25
2022-09-04T21:32:21.797Z,2.17
2022-09-04T21:36:45.300Z,1.63
2022-09-04T21:41:34.577Z,1.98
2022-09-04T21:46:08.482Z,1.80
2022-09-04T21:50:23.112Z,1.98
2022-09-04T21:57:11.772Z,1.42
2022-09-04T22:02:42.626Z,1.65
2022-09-04T22:04:04.475Z,1.83
2022-09-04T22:12:06.399Z,1.90
2022-09-04T22:13:43.610Z,1.65
2022-09-04T22:17:40.782Z,1.90
2022-09-04T22:22:06.182Z,2.10
2022-09-04T22:26:37.329Z,1.90
2022-09-04T22:31:17.506Z,2.25
2022-09-04T22:35:59.667Z,2.00
2022-09-04T22:40:25.900Z,1.90
2022-09-04T22:44:41.246Z,2.08
2022-09-04T22:49:17.725Z,1.90
2022-09-04T22:53:32.493Z,1.88
2022-09-04T22:58:07.404Z,2.22
2022-09-04T23:03:06.725Z,1.77
2022-09-04T23:11:00.409Z,1.90
2022-09-04T23:13:59.558Z,1.88
2022-09-04T23:16:28.252Z,2.15
2022-09-04T23:26:35.788Z,1.85
2022-09-04T23:26:46.605Z,2.30
2022-09-04T23:30:25.659Z,1.90
2022-09-04T23:35:13.419Z,1.85
2022-09-04T23:40:01.865Z,2.03
2022-09-04T23:44:25.943Z,2.17
2022-09-04T23:48:49.771Z,2.10
2022-09-04T23:53:13.408Z,2.22
2022-09-04T23:57:41.440Z,2.20
